Terminal Aerodrome Forecast
Issued by NWS Wichita, KS

Home | Current Version | Previous Version | Text Only | Print | Product List | Glossary On
Versions: 1 2 3 4 5 6 7 8 9 10 11 12 13 14 15 16 17 18 19 20 21 22 23 24 25 26 27
000
FTUS43 KICT 182018 AAA
TAFICT
TAF AMD
KICT 182018Z 1820/1918 18028G38KT P6SM SCT020 BKN200
      TEMPO 1820/1823 BKN028
     FM190100 18021G29KT P6SM SCT020 BKN035
     FM190400 18018G26KT P6SM BKN008 WS020/20050KT
     FM191400 20017G26KT P6SM BKN015=

USA.gov is the U.S. government's official web portal to all federal, state and local government web resources and services.